Time;durP1;ratioP1;P1;durP2;ratioP2;P2;SDS_P1;SDS_P2;PMS_P1;PMS_P2;Temp;Humidity;BMP_temperature;BMP_pressure;BME280_temperature;BME280_humidity;BME280_pressure;Samples;Min_cycle;Max_cycle;Signal;HPM_P1;HPM_P2
2022/11/14 00:01:38;;;;;;;10.30;7.27;;;;;;;5.82;100.00;99136.63;5028702;28;20201;-80
2022/11/14 00:04:07;;;;;;;12.43;6.93;;;;;;;6.04;100.00;99141.78;5024574;28;20213;-80
2022/11/14 00:06:35;;;;;;;10.60;7.77;;;;;;;6.09;100.00;99133.69;5033760;28;20219;-80
2022/11/14 00:09:03;;;;;;;13.13;8.37;;;;;;;6.21;100.00;99139.22;5050438;28;20201;-80
2022/11/14 00:11:33;;;;;;;11.57;7.37;;;;;;;6.06;100.00;99131.19;5057331;28;20204;-81
2022/11/14 00:14:02;;;;;;;8.57;6.57;;;;;;;6.16;100.00;99133.31;5053938;28;20205;-80
2022/11/14 00:16:30;;;;;;;10.53;7.43;;;;;;;5.91;100.00;99138.03;5055012;28;20263;-80
2022/11/14 00:19:01;;;;;;;8.80;6.37;;;;;;;5.79;100.00;99136.78;5053482;28;20216;-80
2022/11/14 00:21:29;;;;;;;10.77;7.30;;;;;;;5.79;100.00;99130.63;5055910;28;20193;-80
2022/11/14 00:23:57;;;;;;;10.57;7.20;;;;;;;5.75;100.00;99133.41;5051062;28;20223;-80
2022/11/14 00:26:26;;;;;;;8.67;6.50;;;;;;;5.64;100.00;99125.16;4970815;28;20200;-81
2022/11/14 00:28:56;;;;;;;10.57;7.50;;;;;;;5.67;100.00;99132.91;4973809;28;20239;-80
2022/11/14 00:31:24;;;;;;;11.70;7.43;;;;;;;5.63;100.00;99127.84;4955612;28;20196;-80
2022/11/14 00:33:53;;;;;;;12.57;7.70;;;;;;;5.66;100.00;99128.56;4952758;28;20247;-81
2022/11/14 00:36:24;;;;;;;10.17;6.73;;;;;;;5.65;100.00;99128.63;4948567;28;20204;-81
2022/11/14 00:38:54;;;;;;;12.87;8.20;;;;;;;5.63;100.00;99118.19;4894441;29;20254;-78
2022/11/14 00:41:24;;;;;;;10.00;7.23;;;;;;;5.62;100.00;99128.78;4897694;29;20197;-80
2022/11/14 00:43:53;;;;;;;8.67;6.60;;;;;;;5.47;100.00;99127.66;4911999;29;20205;-81
2022/11/14 00:46:21;;;;;;;9.17;6.70;;;;;;;5.49;100.00;99128.44;4914319;29;20265;-80
2022/11/14 00:48:49;;;;;;;9.40;6.77;;;;;;;5.50;100.00;99124.94;4911996;29;20263;-80
2022/11/14 00:51:17;;;;;;;9.60;7.10;;;;;;;5.49;100.00;99124.97;4948193;28;20195;-80
2022/11/14 00:53:47;;;;;;;11.67;8.00;;;;;;;5.56;100.00;99115.91;4973411;28;20224;-80
2022/11/14 00:56:16;;;;;;;10.23;7.23;;;;;;;5.45;100.00;99124.25;4981814;28;20295;-80
2022/11/14 00:58:44;;;;;;;12.97;8.53;;;;;;;5.40;100.00;99111.34;5030747;28;20689;-81
2022/11/14 01:01:13;;;;;;;10.87;7.33;;;;;;;5.37;100.00;99107.97;5026637;28;20197;-80
2022/11/14 01:03:41;;;;;;;11.57;7.30;;;;;;;5.27;100.00;99109.31;5026720;28;20668;-80
2022/11/14 01:06:13;;;;;;;11.93;7.80;;;;;;;5.31;100.00;99100.38;5027529;28;20202;-81
2022/11/14 01:08:42;;;;;;;11.93;6.87;;;;;;;5.32;100.00;99102.94;5035974;28;20209;-80
2022/11/14 01:11:15;;;;;;;13.10;8.87;;;;;;;5.22;100.00;99096.38;5053056;28;20197;-80
2022/11/14 01:13:44;;;;;;;14.03;7.93;;;;;;;5.33;100.00;99101.16;5010577;28;20200;-80
2022/11/14 01:16:13;;;;;;;13.53;8.70;;;;;;;5.18;100.00;99093.03;5004188;28;20222;-80
2022/11/14 01:18:45;;;;;;;11.27;8.27;;;;;;;5.25;100.00;99096.25;5008770;28;20219;-81
2022/11/14 01:21:14;;;;;;;10.93;7.00;;;;;;;5.22;100.00;99082.41;5010564;28;20218;-80
2022/11/14 01:23:43;;;;;;;9.30;7.60;;;;;;;5.25;100.00;99083.13;5011806;28;20299;-80
2022/11/14 01:26:15;;;;;;;11.43;7.70;;;;;;;4.98;100.00;99082.53;5005044;28;20195;-80
2022/11/14 01:28:43;;;;;;;11.37;7.67;;;;;;;4.99;100.00;99084.22;5005923;28;20199;-80
2022/11/14 01:31:14;;;;;;;9.20;7.43;;;;;;;4.97;100.00;99080.81;5019192;28;20189;-80
2022/11/14 01:33:54;;;;;;;11.27;8.07;;;;;;;5.04;100.00;99076.19;5051725;28;20196;-80
2022/11/14 01:36:23;;;;;;;12.20;8.50;;;;;;;5.00;100.00;99070.19;5054183;28;20197;-80
2022/11/14 01:38:55;;;;;;;10.27;7.37;;;;;;;5.10;100.00;99073.25;5057480;28;20255;-80
2022/11/14 01:41:25;;;;;;;12.50;8.17;;;;;;;4.98;100.00;99063.31;5061826;28;20240;-80
2022/11/14 01:43:53;;;;;;;13.07;8.23;;;;;;;4.94;100.00;99059.97;5050352;28;20185;-80
2022/11/14 01:46:26;;;;;;;10.83;7.27;;;;;;;4.97;100.00;99064.22;5052118;28;20201;-80
2022/11/14 01:49:00;;;;;;;13.17;9.00;;;;;;;4.97;100.00;99051.94;5048544;28;20201;-80
2022/11/14 01:51:34;;;;;;;12.23;8.30;;;;;;;5.01;100.00;99053.50;5053705;28;20195;-80
2022/11/14 01:54:06;;;;;;;10.93;8.33;;;;;;;4.99;100.00;99046.63;5052923;28;20213;-80
2022/11/14 01:56:41;;;;;;;13.67;8.57;;;;;;;4.86;100.00;99043.69;5050992;28;20189;-80
2022/11/14 01:59:11;;;;;;;17.30;8.80;;;;;;;4.95;100.00;99039.81;5047380;28;20221;-80
2022/11/14 02:01:45;;;;;;;13.07;9.10;;;;;;;4.88;100.00;99047.94;5052639;28;20212;-80
2022/11/14 02:04:18;;;;;;;13.70;8.67;;;;;;;4.89;100.00;99035.69;5052872;28;20647;-80
2022/11/14 02:06:49;;;;;;;14.20;9.77;;;;;;;4.84;100.00;99028.03;5052620;28;20205;-80
2022/11/14 02:09:18;;;;;;;14.03;9.50;;;;;;;4.85;100.00;99026.25;5052802;28;20197;-80
2022/11/14 02:11:49;;;;;;;13.70;9.70;;;;;;;4.81;100.00;99028.13;5047944;28;20215;-80
2022/11/14 02:14:19;;;;;;;11.97;8.87;;;;;;;4.84;100.00;99022.78;5049706;28;20205;-80
2022/11/14 02:16:47;;;;;;;12.63;9.00;;;;;;;4.86;100.00;99020.06;5054046;28;20216;-80
2022/11/14 02:19:44;;;;;;;11.50;8.30;;;;;;;4.68;100.00;99021.72;5053922;28;20223;-80
2022/11/14 02:22:14;;;;;;;14.07;9.40;;;;;;;4.73;100.00;99019.75;5014568;28;20203;-80
2022/11/14 02:24:42;;;;;;;12.60;9.23;;;;;;;4.66;100.00;99018.31;5052595;28;20235;-80
2022/11/14 02:27:12;;;;;;;13.10;8.87;;;;;;;4.69;100.00;99015.53;5048842;28;20196;-80
2022/11/14 02:29:41;;;;;;;12.93;9.20;;;;;;;4.69;100.00;99022.56;5050608;28;20451;-80
2022/11/14 02:32:10;;;;;;;13.53;9.67;;;;;;;4.70;100.00;99022.50;5052708;28;20703;-80
2022/11/14 02:34:39;;;;;;;14.93;9.07;;;;;;;4.55;100.00;99031.88;5053948;28;20247;-80
2022/11/14 02:37:07;;;;;;;14.43;9.67;;;;;;;4.63;100.00;99021.03;5054870;28;20251;-80
2022/11/14 02:39:39;;;;;;;13.33;9.50;;;;;;;4.57;100.00;99029.19;5049054;28;20228;-80
2022/11/14 02:42:07;;;;;;;14.57;9.03;;;;;;;4.53;100.00;99025.81;5047081;28;20267;-80
2022/11/14 02:44:36;;;;;;;12.27;8.80;;;;;;;4.46;100.00;99023.53;5036923;28;20339;-80
2022/11/14 02:47:04;;;;;;;12.60;9.37;;;;;;;4.49;100.00;99013.75;5054823;28;20228;-81
2022/11/14 02:49:33;;;;;;;14.53;9.40;;;;;;;4.49;100.00;99023.41;5052425;28;20675;-80
2022/11/14 02:52:01;;;;;;;13.57;10.03;;;;;;;4.42;100.00;99009.69;5055261;28;20201;-80
2022/11/14 02:54:30;;;;;;;14.63;10.23;;;;;;;4.47;100.00;98999.88;5018491;28;20676;-80
2022/11/14 02:57:01;;;;;;;15.23;10.30;;;;;;;4.47;100.00;98996.38;5005918;28;20206;-79
2022/11/14 02:59:29;;;;;;;15.00;10.07;;;;;;;4.50;100.00;98994.47;5012689;28;20238;-80
2022/11/14 03:01:58;;;;;;;15.70;10.23;;;;;;;4.48;100.00;98998.09;5017047;28;20202;-80
2022/11/14 03:04:26;;;;;;;12.03;9.10;;;;;;;4.54;100.00;98995.22;5012600;28;20203;-80
2022/11/14 03:06:55;;;;;;;14.27;9.83;;;;;;;4.43;100.00;98990.41;5012300;28;20262;-80
2022/11/14 03:09:23;;;;;;;14.87;9.57;;;;;;;4.32;100.00;98987.38;5016904;28;20289;-80
2022/11/14 03:11:52;;;;;;;13.50;9.33;;;;;;;4.27;100.00;98986.72;5016201;28;20190;-80
2022/11/14 03:14:23;;;;;;;13.53;9.47;;;;;;;4.16;100.00;98986.31;5014767;28;20256;-80
2022/11/14 03:16:51;;;;;;;13.57;9.17;;;;;;;4.14;100.00;98978.50;5013606;28;20233;-80
2022/11/14 03:19:20;;;;;;;14.53;9.67;;;;;;;4.22;100.00;98968.56;5024331;28;20283;-82
2022/11/14 03:21:48;;;;;;;11.90;8.70;;;;;;;4.26;100.00;98975.41;5020667;28;20256;-80
2022/11/14 03:24:17;;;;;;;12.40;8.70;;;;;;;4.09;100.00;98972.59;5008135;28;20340;-80
2022/11/14 03:26:46;;;;;;;13.37;8.53;;;;;;;3.99;100.00;98972.13;5018558;28;20202;-80
2022/11/14 03:29:14;;;;;;;13.30;8.50;;;;;;;3.99;100.00;98966.03;5014852;28;20230;-80
2022/11/14 03:31:44;;;;;;;13.67;9.70;;;;;;;3.93;100.00;98966.28;5014108;28;20198;-80
2022/11/14 03:34:13;;;;;;;15.80;9.60;;;;;;;3.93;100.00;98966.28;5015830;28;20202;-80
2022/11/14 03:36:42;;;;;;;13.73;9.77;;;;;;;3.96;100.00;98963.56;5011221;28;20229;-80
2022/11/14 03:39:11;;;;;;;12.50;9.47;;;;;;;3.97;100.00;98967.88;5015530;28;20230;-80
2022/11/14 03:41:39;;;;;;;14.77;10.13;;;;;;;3.93;100.00;98961.88;5014671;28;20194;-80
2022/11/14 03:44:08;;;;;;;14.33;10.17;;;;;;;3.93;100.00;98958.41;5016077;28;20199;-81
2022/11/14 03:46:36;;;;;;;15.67;10.37;;;;;;;4.01;100.00;98962.44;5015206;28;20241;-80
2022/11/14 03:49:06;;;;;;;14.07;9.87;;;;;;;4.04;100.00;98964.06;5009859;28;20252;-80
2022/11/14 03:51:35;;;;;;;16.50;10.20;;;;;;;3.92;100.00;98960.19;5013217;28;20273;-80
2022/11/14 03:54:03;;;;;;;13.40;9.37;;;;;;;3.83;100.00;98955.31;5047322;28;20228;-80
2022/11/14 03:56:32;;;;;;;16.23;10.53;;;;;;;3.86;100.00;98962.19;5057123;28;20224;-80
2022/11/14 03:59:03;;;;;;;15.13;10.20;;;;;;;3.87;100.00;98950.81;5055334;28;20189;-80
2022/11/14 04:01:31;;;;;;;14.67;9.37;;;;;;;4.00;100.00;98962.50;5055882;28;20224;-80
2022/11/14 04:03:59;;;;;;;14.83;9.97;;;;;;;3.64;100.00;98963.03;5054701;28;20227;-80
2022/11/14 04:06:32;;;;;;;13.17;9.43;;;;;;;3.45;100.00;98959.44;5054706;28;20674;-80
2022/11/14 04:09:00;;;;;;;14.40;9.77;;;;;;;3.62;100.00;98959.63;5054852;28;20189;-80
2022/11/14 04:11:29;;;;;;;17.33;11.30;;;;;;;3.53;100.00;98959.13;5052322;28;20193;-80
2022/11/14 04:13:57;;;;;;;14.90;10.07;;;;;;;3.63;100.00;98958.72;5054527;28;20693;-80
2022/11/14 04:16:26;;;;;;;15.40;10.33;;;;;;;3.65;100.00;98961.28;5053822;28;20620;-80
2022/11/14 04:18:54;;;;;;;16.33;10.20;;;;;;;3.73;100.00;98956.59;5049951;28;20236;-80
2022/11/14 04:21:26;;;;;;;14.57;10.13;;;;;;;3.81;100.00;98961.53;5050003;28;20217;-80
2022/11/14 04:23:56;;;;;;;15.50;10.30;;;;;;;3.81;100.00;98959.75;5051241;28;20255;-80
2022/11/14 04:26:24;;;;;;;13.77;9.93;;;;;;;3.81;100.00;98954.53;5054513;28;20201;-80
2022/11/14 04:28:53;;;;;;;15.20;10.10;;;;;;;3.84;100.00;98950.91;5050578;28;20190;-80
2022/11/14 04:31:21;;;;;;;14.80;9.80;;;;;;;3.87;100.00;98950.81;5019777;28;20197;-80
2022/11/14 04:33:50;;;;;;;15.20;10.07;;;;;;;3.83;100.00;98951.84;5049870;28;20193;-80
2022/11/14 04:36:18;;;;;;;13.97;10.10;;;;;;;3.77;100.00;98950.34;5048236;28;20205;-80
2022/11/14 04:38:46;;;;;;;12.40;9.43;;;;;;;3.84;100.00;98941.28;5052108;28;20645;-80
2022/11/14 04:41:16;;;;;;;13.00;9.17;;;;;;;3.69;100.00;98939.31;5053714;28;20220;-80
2022/11/14 04:43:44;;;;;;;14.03;9.53;;;;;;;3.63;100.00;98944.78;5052709;28;20189;-80
2022/11/14 04:46:18;;;;;;;13.80;9.70;;;;;;;3.62;100.00;98949.16;5050576;28;20223;-80
2022/11/14 04:48:46;;;;;;;13.40;9.63;;;;;;;3.52;100.00;98937.34;5053852;28;20197;-80
2022/11/14 04:51:14;;;;;;;47.93;26.03;;;;;;;3.39;100.00;98939.59;5052117;28;20259;-80
2022/11/14 04:53:43;;;;;;;43.67;24.43;;;;;;;3.42;100.00;98929.00;5050845;28;20232;-80
2022/11/14 04:56:11;;;;;;;36.97;21.63;;;;;;;3.45;100.00;98930.63;5048403;28;20205;-81
2022/11/14 04:58:41;;;;;;;33.00;19.47;;;;;;;3.33;100.00;98931.97;5048173;28;20197;-80
2022/11/14 05:01:12;;;;;;;25.20;14.73;;;;;;;3.28;100.00;98923.44;5012391;28;20224;-80
2022/11/14 05:03:41;;;;;;;21.80;13.63;;;;;;;3.34;100.00;98933.66;5052856;28;20185;-80
2022/11/14 05:06:10;;;;;;;18.50;12.63;;;;;;;3.10;100.00;98927.59;5047981;28;20250;-80
2022/11/14 05:08:38;;;;;;;21.33;13.20;;;;;;;3.01;100.00;98925.34;5050381;28;20197;-80
2022/11/14 05:11:07;;;;;;;28.30;17.77;;;;;;;3.14;100.00;98918.72;5051559;28;20189;-80
2022/11/14 05:13:35;;;;;;;42.80;25.90;;;;;;;3.21;100.00;98924.59;5052610;28;20232;-80
2022/11/14 05:16:06;;;;;;;24.00;15.13;;;;;;;3.16;100.00;98918.66;5052407;28;20188;-80
2022/11/14 05:18:34;;;;;;;22.73;14.87;;;;;;;3.27;100.00;98921.72;5050221;28;20246;-80
2022/11/14 05:21:03;;;;;;;18.73;12.57;;;;;;;3.31;100.00;98920.69;5048531;28;20209;-80
2022/11/14 05:23:32;;;;;;;26.43;15.10;;;;;;;3.34;100.00;98911.88;5049808;28;20194;-80
2022/11/14 05:26:05;;;;;;;21.80;14.67;;;;;;;3.42;100.00;98912.44;5051492;28;20220;-80
2022/11/14 05:28:35;;;;;;;20.23;14.43;;;;;;;3.47;100.00;98914.84;5052317;28;20193;-80
2022/11/14 05:31:07;;;;;;;20.90;13.53;;;;;;;3.43;100.00;98912.38;5052728;28;20243;-80
2022/11/14 05:33:36;;;;;;;18.17;11.77;;;;;;;3.43;100.00;98904.50;5052988;28;20201;-81
2022/11/14 05:36:05;;;;;;;18.13;11.73;;;;;;;3.38;100.00;98913.47;5052832;28;20201;-80
2022/11/14 05:38:33;;;;;;;17.13;11.87;;;;;;;3.27;100.00;98916.47;5055381;28;20282;-80
2022/11/14 05:41:06;;;;;;;17.33;12.20;;;;;;;3.21;100.00;98908.03;5053130;28;20217;-80
2022/11/14 05:43:34;;;;;;;17.73;12.37;;;;;;;3.09;100.00;98911.97;5051736;28;20235;-80
2022/11/14 05:46:04;;;;;;;18.00;11.17;;;;;;;3.04;100.00;98912.13;5053409;28;20295;-80
2022/11/14 05:48:34;;;;;;;15.57;10.50;;;;;;;3.02;100.00;98919.19;5051130;28;20193;-80
2022/11/14 05:51:04;;;;;;;15.67;10.60;;;;;;;3.06;100.00;98912.06;5053282;28;20197;-80
2022/11/14 05:53:34;;;;;;;14.53;10.67;;;;;;;3.06;100.00;98914.69;5052640;28;20237;-80
2022/11/14 05:56:05;;;;;;;15.97;10.47;;;;;;;2.93;100.00;98911.69;5047558;28;20258;-80
2022/11/14 05:58:34;;;;;;;17.00;11.03;;;;;;;2.96;100.00;98916.78;5054082;28;20243;-79
2022/11/14 06:01:04;;;;;;;16.73;10.23;;;;;;;2.94;100.00;98925.63;5052545;28;20231;-80
2022/11/14 06:03:36;;;;;;;15.80;10.40;;;;;;;2.97;100.00;98918.50;5051210;28;20220;-80
2022/11/14 06:06:06;;;;;;;18.23;11.23;;;;;;;3.01;100.00;98927.09;5052604;28;20201;-80
2022/11/14 06:08:35;;;;;;;19.90;12.07;;;;;;;3.12;100.00;98928.41;5050842;28;20246;-80
2022/11/14 06:11:04;;;;;;;20.23;13.17;;;;;;;2.97;100.00;98933.34;5052840;28;20197;-80
2022/11/14 06:13:33;;;;;;;30.47;21.03;;;;;;;3.16;100.00;98929.13;5051439;28;20185;-80
2022/11/14 06:16:03;;;;;;;31.90;22.07;;;;;;;3.10;100.00;98932.00;5053203;28;20239;-79
2022/11/14 06:18:32;;;;;;;26.13;19.20;;;;;;;3.05;100.00;98928.69;5055826;28;20357;-80
2022/11/14 06:21:05;;;;;;;26.47;18.40;;;;;;;3.00;100.00;98934.09;5058342;28;20217;-80
2022/11/14 06:23:34;;;;;;;22.87;16.07;;;;;;;3.01;100.00;98937.56;5014920;28;20237;-80
2022/11/14 06:26:04;;;;;;;18.40;12.47;;;;;;;3.04;100.00;98938.28;5009043;28;20690;-79
2022/11/14 06:28:33;;;;;;;15.47;11.40;;;;;;;3.08;100.00;98936.41;5013617;28;20277;-80
2022/11/14 06:31:04;;;;;;;14.80;10.93;;;;;;;2.99;100.00;98942.84;5010694;28;20210;-80
2022/11/14 06:33:36;;;;;;;15.00;10.30;;;;;;;2.95;100.00;98938.63;5014547;28;20194;-80
2022/11/14 06:36:08;;;;;;;12.30;9.37;;;;;;;2.94;100.00;98946.53;5014694;28;20205;-80
2022/11/14 06:38:39;;;;;;;13.83;10.43;;;;;;;3.03;100.00;98949.66;5017991;28;20302;-80
2022/11/14 06:41:10;;;;;;;16.77;11.17;;;;;;;3.21;100.00;98947.28;5018998;28;20743;-79
2022/11/14 06:43:39;;;;;;;15.83;11.20;;;;;;;3.33;100.00;98950.28;5013371;28;20318;-80
2022/11/14 06:46:10;;;;;;;15.63;11.77;;;;;;;3.44;100.00;98939.41;5014861;28;20649;-80
2022/11/14 06:48:39;;;;;;;19.70;13.07;;;;;;;3.49;100.00;98942.69;5042177;28;20193;-80
2022/11/14 06:51:11;;;;;;;17.40;12.50;;;;;;;3.70;100.00;98943.63;5054378;28;20193;-79
2022/11/14 06:53:41;;;;;;;14.20;10.30;;;;;;;3.48;100.00;98935.75;5055791;28;20221;-79
2022/11/14 06:56:11;;;;;;;16.37;10.70;;;;;;;3.09;100.00;98946.00;5052458;28;20204;-79
2022/11/14 06:58:41;;;;;;;15.57;10.53;;;;;;;3.29;100.00;98942.63;5052961;28;20197;-79
2022/11/14 07:01:12;;;;;;;20.10;13.10;;;;;;;3.59;100.00;98937.97;5054846;28;20251;-79
2022/11/14 07:03:41;;;;;;;18.57;13.77;;;;;;;3.58;100.00;98941.50;5062042;28;20189;-78
2022/11/14 07:06:13;;;;;;;17.03;11.47;;;;;;;3.28;100.00;98946.13;5060084;28;20192;-79
2022/11/14 07:08:42;;;;;;;15.23;11.40;;;;;;;3.41;100.00;98950.84;5055503;28;20189;-79
2022/11/14 07:11:21;;;;;;;16.77;11.87;;;;;;;3.53;100.00;98946.03;5053554;28;20236;-79
2022/11/14 07:13:50;;;;;;;14.80;10.17;;;;;;;3.58;100.00;98950.19;4972566;28;20256;-79
2022/11/14 07:16:19;;;;;;;15.53;10.77;;;;;;;3.70;100.00;98951.47;4975028;28;20252;-79
2022/11/14 07:18:48;;;;;;;15.50;10.33;;;;;;;3.83;100.00;98957.06;4971110;28;20371;-79
2022/11/14 07:21:18;;;;;;;15.90;11.23;;;;;;;3.86;100.00;98956.94;4939708;28;20227;-80
2022/11/14 07:23:47;;;;;;;14.90;11.03;;;;;;;3.98;100.00;98956.47;4974521;28;20223;-80
2022/11/14 07:26:15;;;;;;;18.10;11.37;;;;;;;3.97;100.00;98963.47;4970741;28;20200;-79
2022/11/14 07:28:46;;;;;;;14.40;11.40;;;;;;;3.92;100.00;98960.19;4972583;28;20230;-79
2022/11/14 07:31:22;;;;;;;15.57;11.27;;;;;;;3.94;100.00;98967.97;4993360;28;20200;-79
2022/11/14 07:33:50;;;;;;;16.00;11.47;;;;;;;3.98;100.00;98964.34;5052962;28;20652;-80
2022/11/14 07:36:20;;;;;;;16.00;11.30;;;;;;;3.97;100.00;98971.34;5053169;28;20264;-80
2022/11/14 07:38:49;;;;;;;18.13;11.83;;;;;;;4.05;100.00;98967.53;5050083;28;20189;-79
2022/11/14 07:41:18;;;;;;;14.90;11.23;;;;;;;4.09;100.00;98966.50;5053393;28;20208;-80
2022/11/14 07:43:46;;;;;;;20.90;12.70;;;;;;;4.26;100.00;98957.03;5051775;28;20192;-79
2022/11/14 07:46:16;;;;;;;16.40;12.23;;;;;;;4.23;100.00;98951.06;5053095;28;20197;-79
2022/11/14 07:48:45;;;;;;;18.40;12.77;;;;;;;4.45;100.00;98958.91;5055440;28;20217;-79
2022/11/14 07:51:16;;;;;;;22.43;14.47;;;;;;;4.48;100.00;98962.22;5055046;28;20185;-79
2022/11/14 07:53:47;;;;;;;20.27;14.50;;;;;;;4.54;100.00;98966.38;5055044;28;20718;-79
2022/11/14 07:56:19;;;;;;;20.53;13.63;;;;;;;4.44;100.00;98963.28;5055184;28;20186;-79
2022/11/14 07:58:48;;;;;;;21.23;14.37;;;;;;;4.65;100.00;98979.03;5052312;28;20309;-79
2022/11/14 08:01:16;;;;;;;22.83;15.23;;;;;;;4.71;100.00;98976.97;5053734;28;20189;-79
2022/11/14 08:03:45;;;;;;;19.07;12.77;;;;;;;4.66;100.00;98985.97;5056421;28;20251;-79
2022/11/14 08:06:15;;;;;;;22.53;14.43;;;;;;;4.78;100.00;98983.66;5053732;28;20652;-79
2022/11/14 08:08:44;;;;;;;22.97;13.47;;;;;;;4.90;100.00;98990.16;5053238;28;20223;-79
2022/11/14 08:11:15;;;;;;;18.57;11.47;;;;;;;4.37;100.00;98972.31;5056427;28;20294;-79
2022/11/14 08:14:01;;;;;;;15.47;10.50;;;;;;;4.26;100.00;98964.06;5053503;28;20676;-79
2022/11/14 08:16:31;;;;;;;20.50;15.63;;;;;;;4.29;100.00;98964.78;5050200;28;20628;-79
2022/11/14 08:18:59;;;;;;;26.47;17.57;;;;;;;4.41;100.00;98955.53;5053092;28;20259;-79
2022/11/14 08:21:27;;;;;;;23.77;15.10;;;;;;;4.63;100.00;98963.31;5054598;28;20208;-79
2022/11/14 08:23:56;;;;;;;18.80;12.83;;;;;;;4.67;100.00;98970.16;5054644;28;20193;-79
2022/11/14 08:26:26;;;;;;;15.30;10.83;;;;;;;4.65;100.00;98965.91;5049078;28;20201;-79
2022/11/14 08:29:01;;;;;;;18.33;11.17;;;;;;;4.57;100.00;98961.00;5011250;28;20242;-79
2022/11/14 08:31:29;;;;;;;15.10;10.33;;;;;;;4.61;100.00;98952.06;5012622;28;20231;-79
2022/11/14 08:33:59;;;;;;;17.97;11.90;;;;;;;4.81;100.00;98951.19;5012407;28;20681;-79
2022/11/14 08:36:28;;;;;;;21.20;13.57;;;;;;;5.05;100.00;98955.38;5012568;28;20194;-78
2022/11/14 08:38:56;;;;;;;20.07;14.00;;;;;;;5.22;100.00;98959.00;5008194;28;20212;-81
2022/11/14 08:41:30;;;;;;;21.97;14.70;;;;;;;5.21;100.00;98966.03;5014574;28;20397;-79
2022/11/14 08:43:59;;;;;;;22.53;14.63;;;;;;;5.45;100.00;98964.91;5010118;28;20591;-79
2022/11/14 08:46:27;;;;;;;24.23;15.53;;;;;;;5.55;100.00;98967.94;5018648;28;20200;-79
2022/11/14 08:48:55;;;;;;;22.13;15.07;;;;;;;5.77;100.00;98977.44;5050418;28;20289;-79
2022/11/14 08:51:24;;;;;;;24.50;15.83;;;;;;;5.74;100.00;98967.94;5043220;28;20656;-79
2022/11/14 08:53:53;;;;;;;21.07;15.27;;;;;;;5.77;100.00;98978.28;5051684;28;20224;-79
2022/11/14 08:56:21;;;;;;;22.57;14.67;;;;;;;5.84;100.00;98978.88;5053808;28;20235;-80
2022/11/14 08:58:51;;;;;;;23.80;15.20;;;;;;;5.97;100.00;98972.97;5050580;28;20197;-80
2022/11/14 09:01:20;;;;;;;23.27;14.87;;;;;;;6.06;100.00;98968.19;5053882;28;20189;-79
2022/11/14 09:03:50;;;;;;;22.97;15.20;;;;;;;6.00;100.00;98966.72;5047928;28;20710;-79
2022/11/14 09:06:26;;;;;;;22.43;14.70;;;;;;;6.17;100.00;98961.47;5053708;28;20275;-79
2022/11/14 09:08:55;;;;;;;23.50;15.27;;;;;;;6.33;100.00;98956.31;5054187;28;20192;-79
2022/11/14 09:11:23;;;;;;;21.27;15.03;;;;;;;6.20;100.00;98950.81;5052411;28;20231;-80
2022/11/14 09:13:53;;;;;;;20.13;14.47;;;;;;;6.45;100.00;98968.84;5052683;28;20189;-79
2022/11/14 09:16:23;;;;;;;23.27;15.10;;;;;;;6.50;100.00;98971.25;5051783;28;20185;-80
2022/11/14 09:18:51;;;;;;;23.13;14.93;;;;;;;6.58;100.00;98971.72;5053516;28;20212;-78
2022/11/14 09:21:19;;;;;;;24.00;15.87;;;;;;;6.51;100.00;98971.19;5053699;28;20192;-79
2022/11/14 09:23:51;;;;;;;23.83;16.73;;;;;;;6.48;100.00;98983.66;5051787;28;20209;-78
2022/11/14 09:26:25;;;;;;;22.47;14.57;;;;;;;6.60;100.00;98968.09;5053478;28;20189;-79
2022/11/14 09:28:55;;;;;;;23.20;14.20;;;;;;;6.70;100.00;98976.34;5052128;28;20201;-80
2022/11/14 09:31:24;;;;;;;21.93;14.53;;;;;;;6.78;100.00;98984.72;5051246;28;20197;-79
2022/11/14 09:33:52;;;;;;;21.57;14.50;;;;;;;6.76;100.00;98981.31;5053285;28;20193;-80
2022/11/14 09:36:22;;;;;;;23.50;14.40;;;;;;;6.85;100.00;98979.97;5052223;28;20255;-79
2022/11/14 09:38:53;;;;;;;22.60;14.50;;;;;;;6.76;100.00;98975.22;5053380;28;20188;-80
2022/11/14 09:41:26;;;;;;;22.17;14.17;;;;;;;6.69;100.00;98968.56;5048341;28;20185;-79
2022/11/14 09:47:03;;;;;;;23.57;14.43;;;;;;;6.91;100.00;98963.88;5131671;27;20542;-79
2022/11/14 09:49:37;;;;;;;22.20;13.90;;;;;;;6.61;100.00;98953.16;5130666;27;20218;-79
2022/11/14 09:52:16;;;;;;;21.77;16.07;;;;;;;6.92;100.00;98951.56;5127538;27;20206;-79
2022/11/14 09:54:50;;;;;;;19.67;13.03;;;;;;;7.05;100.00;98955.25;5131510;27;20669;-79
2022/11/14 09:57:21;;;;;;;20.93;12.97;;;;;;;7.01;100.00;98964.22;5130427;27;20190;-80
2022/11/14 09:59:49;;;;;;;19.87;13.33;;;;;;;7.19;100.00;98963.25;5055369;28;20196;-79
2022/11/14 10:02:37;;;;;;;20.83;13.77;;;;;;;7.12;100.00;98962.72;5085663;28;20654;-79
2022/11/14 10:05:21;;;;;;;17.67;12.03;;;;;;;7.17;100.00;98955.44;5088169;28;20222;-79
2022/11/14 10:08:11;;;;;;;19.47;13.30;;;;;;;7.11;100.00;98950.50;5086569;28;20658;-79
2022/11/14 10:10:52;;;;;;;23.33;15.80;;;;;;;7.22;100.00;98934.13;5087705;28;20227;-79
2022/11/14 10:13:50;;;;;;;24.27;14.50;;;;;;;7.12;100.00;98927.66;5083022;28;20213;-80
2022/11/14 10:16:23;;;;;;;45.50;27.30;;;;;;;7.16;100.00;98931.84;5084487;28;20335;-79
2022/11/14 10:19:07;;;;;;;21.80;13.50;;;;;;;7.26;100.00;98937.44;5087606;28;20234;-79
2022/11/14 10:21:53;;;;;;;20.00;12.93;;;;;;;7.28;100.00;98936.44;5087756;28;20196;-79
2022/11/14 10:24:41;;;;;;;38.00;23.80;;;;;;;7.47;100.00;98942.41;5107970;27;20645;-79
2022/11/14 10:27:18;;;;;;;19.27;12.97;;;;;;;7.37;100.00;98935.09;5130443;27;20187;-79
2022/11/14 10:30:05;;;;;;;18.53;12.83;;;;;;;7.41;100.00;98944.50;5129179;27;20243;-79
2022/11/14 10:32:48;;;;;;;20.43;13.83;;;;;;;7.30;100.00;98945.09;5130689;27;20193;-79
2022/11/14 10:35:30;;;;;;;22.30;13.53;;;;;;;7.46;100.00;98945.97;5069774;28;20222;-79
2022/11/14 10:38:10;;;;;;;20.80;13.33;;;;;;;7.41;100.00;98942.72;5063870;28;20197;-79
2022/11/14 10:40:41;;;;;;;20.30;12.97;;;;;;;7.44;100.00;98941.72;5062330;28;20204;-80
2022/11/14 10:43:22;;;;;;;17.97;12.50;;;;;;;7.64;100.00;98930.94;5066242;28;20192;-79
2022/11/14 10:45:54;;;;;;;19.30;12.30;;;;;;;8.10;100.00;98916.91;5062462;28;20231;-84
2022/11/14 10:48:42;;;;;;;19.53;12.87;;;;;;;8.52;100.00;98914.44;5063350;28;20200;-82
2022/11/14 10:51:21;;;;;;;15.77;11.93;;;;;;;8.97;100.00;98917.88;5020528;28;20252;-83
2022/11/14 10:53:56;;;;;;;17.17;11.87;;;;;;;9.25;100.00;98906.44;5115635;27;20194;-85
2022/11/14 10:56:25;;;;;;;19.10;13.17;;;;;;;9.56;100.00;98894.78;5126968;27;20210;-85
2022/11/14 10:58:54;;;;;;;14.87;10.90;;;;;;;9.44;100.00;98903.47;5108087;28;20198;-85
2022/11/14 11:01:41;;;;;;;17.30;11.87;;;;;;;9.52;100.00;98881.84;5107630;28;20198;-85
2022/11/14 11:04:21;;;;;;;15.73;11.07;;;;;;;9.28;100.00;98885.13;5114766;28;20191;-85
2022/11/14 11:06:55;;;;;;;15.60;10.83;;;;;;;9.13;100.00;98884.28;5111204;28;20219;-85
2022/11/14 11:12:21;;;;;;;18.73;12.03;;;;;;;8.94;100.00;98883.72;5090006;28;20235;-84
2022/11/14 11:15:13;;;;;;;17.43;11.60;;;;;;;8.96;100.00;98887.13;5086707;28;20203;-85
2022/11/14 11:17:54;;;;;;;16.97;11.03;;;;;;;9.10;100.00;98888.91;5070381;28;20257;-84
2022/11/14 11:20:35;;;;;;;16.43;11.67;;;;;;;9.40;100.00;98886.97;5092684;28;20320;-85
2022/11/14 11:23:20;;;;;;;17.63;11.90;;;;;;;9.84;100.00;98893.84;5060749;28;20207;-84
2022/11/14 11:26:04;;;;;;;17.17;11.77;;;;;;;10.47;100.00;98874.66;5098010;27;20226;-84
2022/11/14 11:28:35;;;;;;;15.70;10.63;;;;;;;10.84;100.00;98870.31;5094468;28;20184;-84
2022/11/14 11:31:10;;;;;;;15.60;11.43;;;;;;;11.16;100.00;98857.44;5057190;28;20207;-84
2022/11/14 11:33:43;;;;;;;15.60;10.50;;;;;;;11.15;100.00;98853.09;5097179;28;20194;-83
2022/11/14 11:36:25;;;;;;;13.73;10.07;;;;;;;11.15;100.00;98860.22;5077837;28;20195;-83
2022/11/14 11:39:02;;;;;;;12.97;9.53;;;;;;;11.46;100.00;98848.25;5094299;28;20195;-84
2022/11/14 11:41:50;;;;;;;12.47;9.53;;;;;;;11.47;100.00;98848.13;5065543;28;20223;-83
2022/11/14 11:44:45;;;;;;;14.80;10.33;;;;;;;11.76;100.00;98848.66;5102766;28;20259;-83